Airfield :
LOGIN :

Register | Disclaimer

   EN    FR    IT 

 










Legend :    VFR   Marginal VFR   IFR   Intensive IFR   Very Intensive IFR
Visi :
Ceiling :
>= 8 km
>= 3000ft
5 to 8 km
1000 to 3000 ft
1500m to 5 km
500 to 1000 ft
800 to 1500m
200 to 500 ft
< 800m
< 200 ft
Symbols :   Thunderstorms  Fog  Heavy snow  Heavy precipitations  Wind > 20 kt
SIGMETs :     Misc.  Thunderstorms  Icing  Turbulence  Mountain Waves  Volcanic Ashes






- Airport Elevation : 70 ft
- IATA code : LEI


LEAM - Almeria

CURRENT METAR :
  • 301430Z 20007KT 170V230 CAVOK 24/18 Q1015

EXPIRED METARs :
  • 301400Z 20007KT 160V240 CAVOK 24/19 Q1015
  • 301330Z 20006KT 170V240 CAVOK 24/19 Q1015
  • 301300Z 21006KT 160V230 CAVOK 23/19 Q1015
  • 301230Z 21006KT 160V240 9999 FEW020 23/19 Q1016
  • 301200Z 20006KT 160V250 9999 FEW020 23/19 Q1016

TAF TAF LEAM
Valid from the 30 at 09:00 until the 01 at 09:00 UTC


300800Z 3009/0109 35006KT CAVOK TX24/3013Z TN19/0105Z
BECMG 3010/3013 21010KT
BECMG 3020/3023 27005KT
PROB30
TEMPO 0100/0108 3000 BR BKN005



MET'MAP, your aeronautical weather chart ! - Copyright ORBIFLY December 2007 - Disclaimer

ORBIFLY MET'MAP TEAM :

Programming & Development : Alexandra Zaïnal
Concept & original design : Baudouin d'Aumeries
Assistance for programming : Marc-Olivier Méhu
Technical & hardware support : Manuel Goepfert

Contact : metmap@orbifly.com




SOURCES & CREDITS :

   NOAA